sensor_id;sensor_type;location;lat;lon;timestamp;temperature;humidity
3868;DHT22;1949;48.152;11.528;2023-07-31T00:02:08;23.20;43.40
3868;DHT22;1949;48.152;11.528;2023-07-31T00:04:36;23.20;44.00
3868;DHT22;1949;48.152;11.528;2023-07-31T00:07:08;23.10;43.30
3868;DHT22;1949;48.152;11.528;2023-07-31T00:09:33;23.10;43.40
3868;DHT22;1949;48.152;11.528;2023-07-31T00:12:00;23.00;43.50
3868;DHT22;1949;48.152;11.528;2023-07-31T00:14:26;23.00;43.70
3868;DHT22;1949;48.152;11.528;2023-07-31T00:16:54;23.00;43.80
3868;DHT22;1949;48.152;11.528;2023-07-31T00:19:54;22.90;43.60
3868;DHT22;1949;48.152;11.528;2023-07-31T00:22:25;22.90;43.70
3868;DHT22;1949;48.152;11.528;2023-07-31T00:25:03;22.90;43.70
3868;DHT22;1949;48.152;11.528;2023-07-31T00:27:33;22.80;43.70
3868;DHT22;1949;48.152;11.528;2023-07-31T00:30:07;22.80;43.90
3868;DHT22;1949;48.152;11.528;2023-07-31T00:32:37;22.80;43.90
3868;DHT22;1949;48.152;11.528;2023-07-31T00:35:03;22.90;44.00
3868;DHT22;1949;48.152;11.528;2023-07-31T00:37:31;22.80;43.90
3868;DHT22;1949;48.152;11.528;2023-07-31T00:39:57;22.90;44.00
3868;DHT22;1949;48.152;11.528;2023-07-31T00:42:25;22.90;43.90
3868;DHT22;1949;48.152;11.528;2023-07-31T00:44:56;22.90;43.90
3868;DHT22;1949;48.152;11.528;2023-07-31T00:47:22;22.80;43.80
3868;DHT22;1949;48.152;11.528;2023-07-31T00:49:56;22.80;43.90
3868;DHT22;1949;48.152;11.528;2023-07-31T00:52:22;22.70;43.90
3868;DHT22;1949;48.152;11.528;2023-07-31T00:54:49;22.70;43.90
3868;DHT22;1949;48.152;11.528;2023-07-31T00:57:16;22.70;44.10
3868;DHT22;1949;48.152;11.528;2023-07-31T00:59:43;22.60;44.00
3868;DHT22;1949;48.152;11.528;2023-07-31T01:02:09;22.60;44.00
3868;DHT22;1949;48.152;11.528;2023-07-31T01:04:43;22.50;44.10
3868;DHT22;1949;48.152;11.528;2023-07-31T01:12:53;22.50;44.30
3868;DHT22;1949;48.152;11.528;2023-07-31T01:15:24;22.50;44.30
3868;DHT22;1949;48.152;11.528;2023-07-31T01:17:54;22.50;44.30
3868;DHT22;1949;48.152;11.528;2023-07-31T01:20:24;22.50;44.40
3868;DHT22;1949;48.152;11.528;2023-07-31T01:26:00;22.50;44.20
3868;DHT22;1949;48.152;11.528;2023-07-31T01:29:16;22.50;44.10
3868;DHT22;1949;48.152;11.528;2023-07-31T01:31:48;22.50;44.10
3868;DHT22;1949;48.152;11.528;2023-07-31T01:34:17;22.40;44.10
3868;DHT22;1949;48.152;11.528;2023-07-31T01:36:44;22.40;44.20
3868;DHT22;1949;48.152;11.528;2023-07-31T01:39:10;22.40;44.10
3868;DHT22;1949;48.152;11.528;2023-07-31T01:41:45;22.30;44.10
3868;DHT22;1949;48.152;11.528;2023-07-31T01:44:11;22.30;44.30
3868;DHT22;1949;48.152;11.528;2023-07-31T01:46:45;22.30;44.30
3868;DHT22;1949;48.152;11.528;2023-07-31T01:49:10;22.30;44.30
3868;DHT22;1949;48.152;11.528;2023-07-31T01:51:37;22.20;44.30
3868;DHT22;1949;48.152;11.528;2023-07-31T01:54:08;22.20;44.40
3868;DHT22;1949;48.152;11.528;2023-07-31T01:56:36;22.20;44.50
3868;DHT22;1949;48.152;11.528;2023-07-31T01:59:02;22.20;44.60
3868;DHT22;1949;48.152;11.528;2023-07-31T02:01:57;22.20;44.60
3868;DHT22;1949;48.152;11.528;2023-07-31T02:04:34;22.10;44.50
3868;DHT22;1949;48.152;11.528;2023-07-31T02:07:00;22.10;44.60
3868;DHT22;1949;48.152;11.528;2023-07-31T02:09:26;22.20;44.80
3868;DHT22;1949;48.152;11.528;2023-07-31T02:11:52;22.20;44.80
3868;DHT22;1949;48.152;11.528;2023-07-31T02:14:22;22.20;44.80
3868;DHT22;1949;48.152;11.528;2023-07-31T02:16:47;22.20;44.80
3868;DHT22;1949;48.152;11.528;2023-07-31T02:19:14;22.30;44.70
3868;DHT22;1949;48.152;11.528;2023-07-31T02:21:47;22.30;45.30
3868;DHT22;1949;48.152;11.528;2023-07-31T02:24:18;22.30;44.70
3868;DHT22;1949;48.152;11.528;2023-07-31T02:26:50;22.30;44.70
3868;DHT22;1949;48.152;11.528;2023-07-31T02:29:16;22.30;44.70
3868;DHT22;1949;48.152;11.528;2023-07-31T02:31:43;22.20;44.70
3868;DHT22;1949;48.152;11.528;2023-07-31T02:34:10;22.20;44.80
3868;DHT22;1949;48.152;11.528;2023-07-31T02:36:37;22.20;44.90
3868;DHT22;1949;48.152;11.528;2023-07-31T02:39:07;22.20;44.80
3868;DHT22;1949;48.152;11.528;2023-07-31T02:41:33;22.20;44.80
3868;DHT22;1949;48.152;11.528;2023-07-31T02:44:05;22.20;45.60
3868;DHT22;1949;48.152;11.528;2023-07-31T02:46:32;22.30;45.20
3868;DHT22;1949;48.152;11.528;2023-07-31T02:49:02;22.30;45.10
3868;DHT22;1949;48.152;11.528;2023-07-31T02:51:36;22.30;45.10
3868;DHT22;1949;48.152;11.528;2023-07-31T02:54:02;22.30;45.10
3868;DHT22;1949;48.152;11.528;2023-07-31T02:56:28;22.30;45.00
3868;DHT22;1949;48.152;11.528;2023-07-31T02:58:55;22.30;45.10
3868;DHT22;1949;48.152;11.528;2023-07-31T03:01:20;22.30;45.20
3868;DHT22;1949;48.152;11.528;2023-07-31T03:03:46;22.30;45.10
3868;DHT22;1949;48.152;11.528;2023-07-31T03:06:12;22.30;45.20
3868;DHT22;1949;48.152;11.528;2023-07-31T03:08:41;22.30;45.20
3868;DHT22;1949;48.152;11.528;2023-07-31T03:11:15;22.30;45.30
3868;DHT22;1949;48.152;11.528;2023-07-31T03:13:43;22.20;45.20
3868;DHT22;1949;48.152;11.528;2023-07-31T03:19:00;22.20;45.40
3868;DHT22;1949;48.152;11.528;2023-07-31T03:21:25;22.20;45.60
3868;DHT22;1949;48.152;11.528;2023-07-31T03:23:52;22.20;45.60
3868;DHT22;1949;48.152;11.528;2023-07-31T03:26:21;22.20;45.60
3868;DHT22;1949;48.152;11.528;2023-07-31T03:28:52;22.20;45.60
3868;DHT22;1949;48.152;11.528;2023-07-31T03:31:17;22.20;45.70
3868;DHT22;1949;48.152;11.528;2023-07-31T03:33:48;22.20;45.70
3868;DHT22;1949;48.152;11.528;2023-07-31T03:36:16;22.10;45.70
3868;DHT22;1949;48.152;11.528;2023-07-31T03:38:43;22.10;45.90
3868;DHT22;1949;48.152;11.528;2023-07-31T03:41:10;22.10;46.00
3868;DHT22;1949;48.152;11.528;2023-07-31T03:43:36;22.10;46.00
3868;DHT22;1949;48.152;11.528;2023-07-31T03:46:01;22.10;46.00
3868;DHT22;1949;48.152;11.528;2023-07-31T03:48:49;22.10;46.00
3868;DHT22;1949;48.152;11.528;2023-07-31T03:51:15;22.10;46.00
3868;DHT22;1949;48.152;11.528;2023-07-31T03:53:42;22.10;46.00
3868;DHT22;1949;48.152;11.528;2023-07-31T03:56:17;22.00;46.00
3868;DHT22;1949;48.152;11.528;2023-07-31T03:58:43;22.00;46.10
3868;DHT22;1949;48.152;11.528;2023-07-31T04:01:20;22.00;46.30
3868;DHT22;1949;48.152;11.528;2023-07-31T04:03:48;22.00;46.40
3868;DHT22;1949;48.152;11.528;2023-07-31T04:06:13;22.00;46.50
3868;DHT22;1949;48.152;11.528;2023-07-31T04:08:55;22.00;46.40
3868;DHT22;1949;48.152;11.528;2023-07-31T04:11:21;22.00;46.30
3868;DHT22;1949;48.152;11.528;2023-07-31T04:13:54;21.90;46.40
3868;DHT22;1949;48.152;11.528;2023-07-31T04:16:19;21.90;46.50
3868;DHT22;1949;48.152;11.528;2023-07-31T04:18:45;21.90;46.60
3868;DHT22;1949;48.152;11.528;2023-07-31T04:21:16;21.90;46.70
3868;DHT22;1949;48.152;11.528;2023-07-31T04:23:41;21.90;46.70
3868;DHT22;1949;48.152;11.528;2023-07-31T04:26:19;21.90;46.70
3868;DHT22;1949;48.152;11.528;2023-07-31T04:28:46;21.90;46.70
3868;DHT22;1949;48.152;11.528;2023-07-31T04:31:12;21.80;46.80
3868;DHT22;1949;48.152;11.528;2023-07-31T04:33:38;21.80;46.80
3868;DHT22;1949;48.152;11.528;2023-07-31T04:36:06;21.70;46.90
3868;DHT22;1949;48.152;11.528;2023-07-31T04:38:32;21.70;46.90
3868;DHT22;1949;48.152;11.528;2023-07-31T04:41:06;21.70;47.00
3868;DHT22;1949;48.152;11.528;2023-07-31T04:47:00;21.70;47.10
3868;DHT22;1949;48.152;11.528;2023-07-31T04:49:33;21.70;47.10
3868;DHT22;1949;48.152;11.528;2023-07-31T04:51:59;21.70;47.30
3868;DHT22;1949;48.152;11.528;2023-07-31T04:54:32;21.70;47.30
3868;DHT22;1949;48.152;11.528;2023-07-31T04:57:08;21.70;47.20
3868;DHT22;1949;48.152;11.528;2023-07-31T04:59:45;21.70;47.20
3868;DHT22;1949;48.152;11.528;2023-07-31T05:02:19;21.60;47.20
3868;DHT22;1949;48.152;11.528;2023-07-31T05:05:02;21.60;47.30
3868;DHT22;1949;48.152;11.528;2023-07-31T05:07:41;21.60;47.40
3868;DHT22;1949;48.152;11.528;2023-07-31T05:13:18;21.60;47.40
3868;DHT22;1949;48.152;11.528;2023-07-31T05:15:50;21.60;47.50
3868;DHT22;1949;48.152;11.528;2023-07-31T05:18:17;21.60;47.60
3868;DHT22;1949;48.152;11.528;2023-07-31T05:21:00;21.50;47.70
3868;DHT22;1949;48.152;11.528;2023-07-31T05:23:38;21.50;47.70
3868;DHT22;1949;48.152;11.528;2023-07-31T05:26:07;21.60;47.90
3868;DHT22;1949;48.152;11.528;2023-07-31T05:28:42;21.60;48.00
3868;DHT22;1949;48.152;11.528;2023-07-31T05:31:17;21.60;48.00
3868;DHT22;1949;48.152;11.528;2023-07-31T05:33:47;21.70;48.10
3868;DHT22;1949;48.152;11.528;2023-07-31T05:36:17;21.70;48.00
3868;DHT22;1949;48.152;11.528;2023-07-31T05:38:44;21.80;48.00
3868;DHT22;1949;48.152;11.528;2023-07-31T05:41:19;21.80;47.90
3868;DHT22;1949;48.152;11.528;2023-07-31T05:44:15;21.80;47.90
3868;DHT22;1949;48.152;11.528;2023-07-31T05:46:42;21.90;47.70
3868;DHT22;1949;48.152;11.528;2023-07-31T05:49:11;21.90;47.70
3868;DHT22;1949;48.152;11.528;2023-07-31T05:51:37;21.90;47.60
3868;DHT22;1949;48.152;11.528;2023-07-31T05:54:03;21.90;47.70
3868;DHT22;1949;48.152;11.528;2023-07-31T05:56:34;22.00;47.70
3868;DHT22;1949;48.152;11.528;2023-07-31T05:59:01;22.00;47.70
3868;DHT22;1949;48.152;11.528;2023-07-31T06:01:38;21.90;47.50
3868;DHT22;1949;48.152;11.528;2023-07-31T06:04:06;22.00;47.50
3868;DHT22;1949;48.152;11.528;2023-07-31T06:06:34;22.00;47.50
3868;DHT22;1949;48.152;11.528;2023-07-31T06:09:00;22.00;47.60
3868;DHT22;1949;48.152;11.528;2023-07-31T06:11:27;22.00;47.50
3868;DHT22;1949;48.152;11.528;2023-07-31T06:13:53;22.00;47.50
3868;DHT22;1949;48.152;11.528;2023-07-31T06:16:33;22.10;47.50
3868;DHT22;1949;48.152;11.528;2023-07-31T06:19:01;22.10;47.50
3868;DHT22;1949;48.152;11.528;2023-07-31T06:21:34;22.20;48.00
3868;DHT22;1949;48.152;11.528;2023-07-31T06:24:03;22.30;47.30
3868;DHT22;1949;48.152;11.528;2023-07-31T06:26:30;22.30;47.30
3868;DHT22;1949;48.152;11.528;2023-07-31T06:28:57;22.30;47.30
3868;DHT22;1949;48.152;11.528;2023-07-31T06:31:28;22.30;47.10
3868;DHT22;1949;48.152;11.528;2023-07-31T06:33:55;22.30;47.00
3868;DHT22;1949;48.152;11.528;2023-07-31T06:36:23;22.40;47.10
3868;DHT22;1949;48.152;11.528;2023-07-31T06:38:50;22.30;46.90
3868;DHT22;1949;48.152;11.528;2023-07-31T06:41:28;22.40;47.10
3868;DHT22;1949;48.152;11.528;2023-07-31T06:43:54;22.40;47.00
3868;DHT22;1949;48.152;11.528;2023-07-31T06:46:21;22.40;46.80
3868;DHT22;1949;48.152;11.528;2023-07-31T06:48:46;22.40;46.80
3868;DHT22;1949;48.152;11.528;2023-07-31T06:51:14;22.40;46.80
3868;DHT22;1949;48.152;11.528;2023-07-31T06:53:40;22.40;46.90
3868;DHT22;1949;48.152;11.528;2023-07-31T06:56:12;22.50;47.00
3868;DHT22;1949;48.152;11.528;2023-07-31T06:58:39;22.50;46.70
3868;DHT22;1949;48.152;11.528;2023-07-31T07:01:05;22.50;46.70
3868;DHT22;1949;48.152;11.528;2023-07-31T07:03:31;22.40;46.70
3868;DHT22;1949;48.152;11.528;2023-07-31T07:05:57;22.40;46.70
3868;DHT22;1949;48.152;11.528;2023-07-31T07:08:30;22.40;46.70
3868;DHT22;1949;48.152;11.528;2023-07-31T07:10:58;22.40;46.80
3868;DHT22;1949;48.152;11.528;2023-07-31T07:13:23;22.30;46.80
3868;DHT22;1949;48.152;11.528;2023-07-31T07:15:50;22.30;46.80
3868;DHT22;1949;48.152;11.528;2023-07-31T07:18:16;22.30;46.90
3868;DHT22;1949;48.152;11.528;2023-07-31T07:20:50;22.40;46.80
3868;DHT22;1949;48.152;11.528;2023-07-31T07:23:17;22.40;46.80
3868;DHT22;1949;48.152;11.528;2023-07-31T07:25:44;22.40;46.80
3868;DHT22;1949;48.152;11.528;2023-07-31T07:28:11;22.40;46.90
3868;DHT22;1949;48.152;11.528;2023-07-31T07:30:39;22.40;46.80
3868;DHT22;1949;48.152;11.528;2023-07-31T07:33:06;22.40;46.80
3868;DHT22;1949;48.152;11.528;2023-07-31T07:35:40;22.40;46.60
3868;DHT22;1949;48.152;11.528;2023-07-31T07:38:06;22.40;46.70
3868;DHT22;1949;48.152;11.528;2023-07-31T07:40:32;22.40;46.70
3868;DHT22;1949;48.152;11.528;2023-07-31T07:42:58;22.40;46.70
3868;DHT22;1949;48.152;11.528;2023-07-31T07:45:26;22.50;46.80
3868;DHT22;1949;48.152;11.528;2023-07-31T07:47:52;22.50;46.80
3868;DHT22;1949;48.152;11.528;2023-07-31T07:50:19;22.50;46.80
3868;DHT22;1949;48.152;11.528;2023-07-31T07:52:44;22.60;46.90
3868;DHT22;1949;48.152;11.528;2023-07-31T07:55:10;22.60;46.90
3868;DHT22;1949;48.152;11.528;2023-07-31T07:57:36;22.60;46.50
3868;DHT22;1949;48.152;11.528;2023-07-31T08:00:02;22.60;46.70
3868;DHT22;1949;48.152;11.528;2023-07-31T08:02:27;22.60;46.50
3868;DHT22;1949;48.152;11.528;2023-07-31T08:04:53;22.70;46.60
3868;DHT22;1949;48.152;11.528;2023-07-31T08:07:19;22.70;46.50
3868;DHT22;1949;48.152;11.528;2023-07-31T08:09:44;22.70;46.50
3868;DHT22;1949;48.152;11.528;2023-07-31T08:12:10;22.70;46.40
3868;DHT22;1949;48.152;11.528;2023-07-31T08:14:36;22.70;46.40
3868;DHT22;1949;48.152;11.528;2023-07-31T08:17:02;22.80;46.40
3868;DHT22;1949;48.152;11.528;2023-07-31T08:19:28;22.80;46.20
3868;DHT22;1949;48.152;11.528;2023-07-31T08:21:53;22.90;46.20
3868;DHT22;1949;48.152;11.528;2023-07-31T08:24:19;22.90;46.10
3868;DHT22;1949;48.152;11.528;2023-07-31T08:26:45;22.90;46.00
3868;DHT22;1949;48.152;11.528;2023-07-31T08:29:10;22.90;46.00
3868;DHT22;1949;48.152;11.528;2023-07-31T08:31:36;23.00;46.00
3868;DHT22;1949;48.152;11.528;2023-07-31T08:34:02;23.00;46.00
3868;DHT22;1949;48.152;11.528;2023-07-31T08:36:28;23.10;46.00
3868;DHT22;1949;48.152;11.528;2023-07-31T08:38:55;23.10;45.70
3868;DHT22;1949;48.152;11.528;2023-07-31T08:41:20;23.10;45.20
3868;DHT22;1949;48.152;11.528;2023-07-31T08:43:47;23.10;45.20
3868;DHT22;1949;48.152;11.528;2023-07-31T08:46:15;23.10;45.20
3868;DHT22;1949;48.152;11.528;2023-07-31T08:48:42;23.10;45.30
3868;DHT22;1949;48.152;11.528;2023-07-31T08:51:08;23.10;45.30
3868;DHT22;1949;48.152;11.528;2023-07-31T08:53:34;23.10;45.30
3868;DHT22;1949;48.152;11.528;2023-07-31T08:56:10;23.10;45.20
3868;DHT22;1949;48.152;11.528;2023-07-31T08:58:43;23.10;45.30
3868;DHT22;1949;48.152;11.528;2023-07-31T09:01:09;23.20;45.10
3868;DHT22;1949;48.152;11.528;2023-07-31T09:03:39;23.10;44.90
3868;DHT22;1949;48.152;11.528;2023-07-31T09:06:06;23.10;44.90
3868;DHT22;1949;48.152;11.528;2023-07-31T09:08:34;23.10;44.90
3868;DHT22;1949;48.152;11.528;2023-07-31T09:11:01;23.10;45.00
3868;DHT22;1949;48.152;11.528;2023-07-31T09:13:33;23.10;45.10
3868;DHT22;1949;48.152;11.528;2023-07-31T09:15:59;23.20;45.30
3868;DHT22;1949;48.152;11.528;2023-07-31T09:18:24;23.20;45.30
3868;DHT22;1949;48.152;11.528;2023-07-31T09:21:06;23.30;45.00
3868;DHT22;1949;48.152;11.528;2023-07-31T09:23:43;23.30;44.80
3868;DHT22;1949;48.152;11.528;2023-07-31T09:26:10;23.30;44.60
3868;DHT22;1949;48.152;11.528;2023-07-31T09:28:48;23.30;44.60
3868;DHT22;1949;48.152;11.528;2023-07-31T09:31:13;23.40;44.80
3868;DHT22;1949;48.152;11.528;2023-07-31T09:33:54;23.40;44.70
3868;DHT22;1949;48.152;11.528;2023-07-31T09:36:21;23.40;44.60
3868;DHT22;1949;48.152;11.528;2023-07-31T09:38:48;23.40;44.60
3868;DHT22;1949;48.152;11.528;2023-07-31T09:41:13;23.40;44.50
3868;DHT22;1949;48.152;11.528;2023-07-31T09:43:40;23.40;44.40
3868;DHT22;1949;48.152;11.528;2023-07-31T09:46:13;23.50;44.50
3868;DHT22;1949;48.152;11.528;2023-07-31T09:48:42;23.50;44.50
3868;DHT22;1949;48.152;11.528;2023-07-31T09:51:07;23.50;44.20
3868;DHT22;1949;48.152;11.528;2023-07-31T09:53:33;23.50;44.40
3868;DHT22;1949;48.152;11.528;2023-07-31T09:55:59;23.60;44.30
3868;DHT22;1949;48.152;11.528;2023-07-31T09:58:28;23.60;44.20
3868;DHT22;1949;48.152;11.528;2023-07-31T10:01:02;23.60;44.40
3868;DHT22;1949;48.152;11.528;2023-07-31T10:03:31;23.60;44.20
3868;DHT22;1949;48.152;11.528;2023-07-31T10:05:58;23.60;44.10
3868;DHT22;1949;48.152;11.528;2023-07-31T10:08:35;23.70;44.20
3868;DHT22;1949;48.152;11.528;2023-07-31T10:11:02;23.70;44.10
3868;DHT22;1949;48.152;11.528;2023-07-31T10:13:32;23.70;44.00
3868;DHT22;1949;48.152;11.528;2023-07-31T10:15:59;23.70;43.80
3868;DHT22;1949;48.152;11.528;2023-07-31T10:18:36;23.80;43.90
3868;DHT22;1949;48.152;11.528;2023-07-31T10:21:02;23.80;44.00
3868;DHT22;1949;48.152;11.528;2023-07-31T10:23:32;23.80;43.70
3868;DHT22;1949;48.152;11.528;2023-07-31T10:25:59;23.80;43.60
3868;DHT22;1949;48.152;11.528;2023-07-31T10:28:27;23.80;43.60
3868;DHT22;1949;48.152;11.528;2023-07-31T10:31:02;23.80;43.40
3868;DHT22;1949;48.152;11.528;2023-07-31T10:33:30;23.90;43.50
3868;DHT22;1949;48.152;11.528;2023-07-31T10:36:18;23.90;43.50
3868;DHT22;1949;48.152;11.528;2023-07-31T10:38:45;23.90;43.50
3868;DHT22;1949;48.152;11.528;2023-07-31T10:41:13;24.00;43.50
3868;DHT22;1949;48.152;11.528;2023-07-31T10:43:39;24.00;43.30
3868;DHT22;1949;48.152;11.528;2023-07-31T10:46:12;24.10;43.30
3868;DHT22;1949;48.152;11.528;2023-07-31T10:48:40;24.10;43.30
3868;DHT22;1949;48.152;11.528;2023-07-31T10:51:12;24.10;43.20
3868;DHT22;1949;48.152;11.528;2023-07-31T10:53:40;24.10;42.90
3868;DHT22;1949;48.152;11.528;2023-07-31T10:56:09;24.20;42.90
3868;DHT22;1949;48.152;11.528;2023-07-31T10:58:37;24.10;42.70
3868;DHT22;1949;48.152;11.528;2023-07-31T11:01:04;24.20;42.80
3868;DHT22;1949;48.152;11.528;2023-07-31T11:03:45;24.20;42.90
3868;DHT22;1949;48.152;11.528;2023-07-31T11:06:13;24.20;42.90
3868;DHT22;1949;48.152;11.528;2023-07-31T11:08:47;24.20;42.70
3868;DHT22;1949;48.152;11.528;2023-07-31T11:11:19;24.20;42.70
3868;DHT22;1949;48.152;11.528;2023-07-31T11:16:12;24.20;42.70
3868;DHT22;1949;48.152;11.528;2023-07-31T11:18:42;24.20;42.60
3868;DHT22;1949;48.152;11.528;2023-07-31T11:21:15;24.20;42.60
3868;DHT22;1949;48.152;11.528;2023-07-31T11:23:56;24.30;42.80
3868;DHT22;1949;48.152;11.528;2023-07-31T11:26:23;24.30;42.60
3868;DHT22;1949;48.152;11.528;2023-07-31T11:28:50;24.30;42.40
3868;DHT22;1949;48.152;11.528;2023-07-31T11:31:16;24.30;42.40
3868;DHT22;1949;48.152;11.528;2023-07-31T11:33:43;24.40;42.20
3868;DHT22;1949;48.152;11.528;2023-07-31T11:36:17;24.30;42.10
3868;DHT22;1949;48.152;11.528;2023-07-31T11:38:42;24.30;42.10
3868;DHT22;1949;48.152;11.528;2023-07-31T11:41:08;24.30;42.20
3868;DHT22;1949;48.152;11.528;2023-07-31T11:43:34;24.30;42.20
3868;DHT22;1949;48.152;11.528;2023-07-31T11:46:02;24.30;42.10
3868;DHT22;1949;48.152;11.528;2023-07-31T11:48:36;24.40;42.30
3868;DHT22;1949;48.152;11.528;2023-07-31T11:51:04;24.40;42.20
3868;DHT22;1949;48.152;11.528;2023-07-31T11:53:44;24.50;42.10
3868;DHT22;1949;48.152;11.528;2023-07-31T11:56:13;24.60;42.30
3868;DHT22;1949;48.152;11.528;2023-07-31T11:58:47;24.60;42.00
3868;DHT22;1949;48.152;11.528;2023-07-31T12:01:19;24.60;41.80
3868;DHT22;1949;48.152;11.528;2023-07-31T12:03:46;24.70;42.00
3868;DHT22;1949;48.152;11.528;2023-07-31T12:06:12;24.70;41.60
3868;DHT22;1949;48.152;11.528;2023-07-31T12:08:40;24.70;41.70
3868;DHT22;1949;48.152;11.528;2023-07-31T12:11:13;24.80;41.80
3868;DHT22;1949;48.152;11.528;2023-07-31T12:13:43;24.90;41.90
3868;DHT22;1949;48.152;11.528;2023-07-31T12:16:09;24.90;41.30
3868;DHT22;1949;48.152;11.528;2023-07-31T12:18:36;25.00;41.20
3868;DHT22;1949;48.152;11.528;2023-07-31T12:21:07;25.00;41.10
3868;DHT22;1949;48.152;11.528;2023-07-31T12:23:35;25.10;41.20
3868;DHT22;1949;48.152;11.528;2023-07-31T12:26:08;25.20;41.20
3868;DHT22;1949;48.152;11.528;2023-07-31T12:28:45;25.30;41.10
3868;DHT22;1949;48.152;11.528;2023-07-31T12:31:14;25.40;41.10
3868;DHT22;1949;48.152;11.528;2023-07-31T12:33:43;25.50;40.60
3868;DHT22;1949;48.152;11.528;2023-07-31T12:36:13;25.60;40.30
3868;DHT22;1949;48.152;11.528;2023-07-31T12:38:40;25.60;40.10
3868;DHT22;1949;48.152;11.528;2023-07-31T12:41:05;25.60;40.10
3868;DHT22;1949;48.152;11.528;2023-07-31T12:43:35;25.70;40.20
3868;DHT22;1949;48.152;11.528;2023-07-31T12:46:01;25.80;40.00
3868;DHT22;1949;48.152;11.528;2023-07-31T12:48:28;25.90;40.00
3868;DHT22;1949;48.152;11.528;2023-07-31T12:50:53;26.00;40.00
3868;DHT22;1949;48.152;11.528;2023-07-31T12:53:20;26.10;39.70
3868;DHT22;1949;48.152;11.528;2023-07-31T12:55:46;26.10;39.60
3868;DHT22;1949;48.152;11.528;2023-07-31T12:58:12;26.20;39.60
3868;DHT22;1949;48.152;11.528;2023-07-31T13:00:42;26.30;39.60
3868;DHT22;1949;48.152;11.528;2023-07-31T13:03:12;26.30;39.60
3868;DHT22;1949;48.152;11.528;2023-07-31T13:05:39;26.30;39.50
3868;DHT22;1949;48.152;11.528;2023-07-31T13:08:05;26.30;39.50
3868;DHT22;1949;48.152;11.528;2023-07-31T13:10:32;26.30;39.40
3868;DHT22;1949;48.152;11.528;2023-07-31T13:12:58;26.30;39.30
3868;DHT22;1949;48.152;11.528;2023-07-31T13:15:28;26.40;39.50
3868;DHT22;1949;48.152;11.528;2023-07-31T13:18:00;26.50;39.20
3868;DHT22;1949;48.152;11.528;2023-07-31T13:20:26;26.50;39.00
3868;DHT22;1949;48.152;11.528;2023-07-31T13:22:51;26.40;39.10
3868;DHT22;1949;48.152;11.528;2023-07-31T13:25:17;26.50;39.00
3868;DHT22;1949;48.152;11.528;2023-07-31T13:27:44;26.50;38.80
3868;DHT22;1949;48.152;11.528;2023-07-31T13:30:10;26.50;38.90
3868;DHT22;1949;48.152;11.528;2023-07-31T13:32:36;26.60;38.90
3868;DHT22;1949;48.152;11.528;2023-07-31T13:35:07;26.70;38.70
3868;DHT22;1949;48.152;11.528;2023-07-31T13:37:34;26.70;38.30
3868;DHT22;1949;48.152;11.528;2023-07-31T13:40:00;26.90;38.50
3868;DHT22;1949;48.152;11.528;2023-07-31T13:42:26;27.00;38.20
3868;DHT22;1949;48.152;11.528;2023-07-31T13:44:52;27.10;37.90
3868;DHT22;1949;48.152;11.528;2023-07-31T13:47:18;27.10;37.90
3868;DHT22;1949;48.152;11.528;2023-07-31T13:49:43;27.20;37.70
3868;DHT22;1949;48.152;11.528;2023-07-31T13:52:10;27.20;37.80
3868;DHT22;1949;48.152;11.528;2023-07-31T13:54:36;27.40;37.90
3868;DHT22;1949;48.152;11.528;2023-07-31T13:57:03;27.50;38.00
3868;DHT22;1949;48.152;11.528;2023-07-31T13:59:29;27.60;37.50
3868;DHT22;1949;48.152;11.528;2023-07-31T14:01:54;27.70;37.40
3868;DHT22;1949;48.152;11.528;2023-07-31T14:04:20;27.60;37.10
3868;DHT22;1949;48.152;11.528;2023-07-31T14:06:46;27.60;36.90
3868;DHT22;1949;48.152;11.528;2023-07-31T14:09:22;27.60;36.70
3868;DHT22;1949;48.152;11.528;2023-07-31T14:11:48;27.50;36.80
3868;DHT22;1949;48.152;11.528;2023-07-31T14:14:16;27.50;36.80
3868;DHT22;1949;48.152;11.528;2023-07-31T14:16:43;27.60;36.90
3868;DHT22;1949;48.152;11.528;2023-07-31T14:19:09;27.60;36.70
3868;DHT22;1949;48.152;11.528;2023-07-31T14:21:34;27.70;36.70
3868;DHT22;1949;48.152;11.528;2023-07-31T14:24:00;27.60;36.70
3868;DHT22;1949;48.152;11.528;2023-07-31T14:26:26;27.60;36.80
3868;DHT22;1949;48.152;11.528;2023-07-31T14:28:58;27.50;36.80
3868;DHT22;1949;48.152;11.528;2023-07-31T14:31:26;27.50;36.90
3868;DHT22;1949;48.152;11.528;2023-07-31T14:33:53;27.50;36.80
3868;DHT22;1949;48.152;11.528;2023-07-31T14:36:19;27.60;36.70
3868;DHT22;1949;48.152;11.528;2023-07-31T14:38:46;27.70;36.50
3868;DHT22;1949;48.152;11.528;2023-07-31T14:41:12;27.80;36.10
3868;DHT22;1949;48.152;11.528;2023-07-31T14:43:38;27.80;36.10
3868;DHT22;1949;48.152;11.528;2023-07-31T14:46:06;27.80;36.20
3868;DHT22;1949;48.152;11.528;2023-07-31T14:48:33;27.90;36.10
3868;DHT22;1949;48.152;11.528;2023-07-31T14:50:58;27.90;36.00
3868;DHT22;1949;48.152;11.528;2023-07-31T14:53:24;27.90;36.70
3868;DHT22;1949;48.152;11.528;2023-07-31T14:55:50;27.80;36.10
3868;DHT22;1949;48.152;11.528;2023-07-31T14:58:23;27.70;36.80
3868;DHT22;1949;48.152;11.528;2023-07-31T15:00:52;27.70;36.10
3868;DHT22;1949;48.152;11.528;2023-07-31T15:03:25;27.70;36.10
3868;DHT22;1949;48.152;11.528;2023-07-31T15:05:56;27.60;35.90
3868;DHT22;1949;48.152;11.528;2023-07-31T15:08:21;27.60;35.80
3868;DHT22;1949;48.152;11.528;2023-07-31T15:10:49;27.40;35.80
3868;DHT22;1949;48.152;11.528;2023-07-31T15:13:14;27.30;35.90
3868;DHT22;1949;48.152;11.528;2023-07-31T15:15:41;27.20;36.00
3868;DHT22;1949;48.152;11.528;2023-07-31T15:18:07;27.10;36.10
3868;DHT22;1949;48.152;11.528;2023-07-31T15:20:32;27.00;36.40
3868;DHT22;1949;48.152;11.528;2023-07-31T15:23:01;27.00;36.60
3868;DHT22;1949;48.152;11.528;2023-07-31T15:25:28;27.00;36.70
3868;DHT22;1949;48.152;11.528;2023-07-31T15:27:55;27.00;36.70
3868;DHT22;1949;48.152;11.528;2023-07-31T15:30:24;26.90;36.70
3868;DHT22;1949;48.152;11.528;2023-07-31T15:32:50;26.90;36.80
3868;DHT22;1949;48.152;11.528;2023-07-31T15:35:16;26.80;36.80
3868;DHT22;1949;48.152;11.528;2023-07-31T15:37:42;26.80;36.90
3868;DHT22;1949;48.152;11.528;2023-07-31T15:40:08;26.70;36.90
3868;DHT22;1949;48.152;11.528;2023-07-31T15:42:34;26.60;37.00
3868;DHT22;1949;48.152;11.528;2023-07-31T15:45:07;26.60;37.20
3868;DHT22;1949;48.152;11.528;2023-07-31T15:47:40;26.60;37.30
3868;DHT22;1949;48.152;11.528;2023-07-31T15:50:06;26.60;37.40
3868;DHT22;1949;48.152;11.528;2023-07-31T15:52:39;26.60;37.50
3868;DHT22;1949;48.152;11.528;2023-07-31T15:55:05;26.50;37.50
3868;DHT22;1949;48.152;11.528;2023-07-31T15:57:34;26.50;37.70
3868;DHT22;1949;48.152;11.528;2023-07-31T16:00:01;26.50;37.70
3868;DHT22;1949;48.152;11.528;2023-07-31T16:02:30;26.50;37.90
3868;DHT22;1949;48.152;11.528;2023-07-31T16:04:57;26.40;37.90
3868;DHT22;1949;48.152;11.528;2023-07-31T16:07:29;26.40;38.00
3868;DHT22;1949;48.152;11.528;2023-07-31T16:10:01;26.30;38.00
3868;DHT22;1949;48.152;11.528;2023-07-31T16:12:27;26.30;38.20
3868;DHT22;1949;48.152;11.528;2023-07-31T16:14:53;26.30;38.30
3868;DHT22;1949;48.152;11.528;2023-07-31T16:17:25;26.30;38.30